createdAt,value
2022-08-08T00:01:06.725Z,99.90
2022-08-08T00:03:48.036Z,99.90
2022-08-08T00:06:34.706Z,99.90
2022-08-08T00:09:09.346Z,99.90
2022-08-08T00:11:46.615Z,99.90
2022-08-08T00:14:56.866Z,99.90
2022-08-08T00:17:58.380Z,99.90
2022-08-08T00:20:32.177Z,99.90
2022-08-08T00:23:07.960Z,99.90
2022-08-08T00:25:46.260Z,99.90
2022-08-08T00:28:35.457Z,99.90
2022-08-08T00:32:20.243Z,99.90
2022-08-08T00:34:33.695Z,99.90
2022-08-08T00:37:45.180Z,99.90
2022-08-08T00:41:12.530Z,99.90
2022-08-08T00:43:59.333Z,99.90
2022-08-08T00:47:04.402Z,99.90
2022-08-08T00:50:09.588Z,99.90
2022-08-08T00:52:51.343Z,99.90
2022-08-08T00:56:01.644Z,99.90
2022-08-08T00:59:05.794Z,99.90
2022-08-08T01:01:40.390Z,99.90
2022-08-08T01:04:42.109Z,99.90
2022-08-08T01:07:55.941Z,99.90
2022-08-08T01:11:17.902Z,99.90
2022-08-08T01:14:53.642Z,99.90
2022-08-08T01:18:07.279Z,99.90
2022-08-08T01:20:56.493Z,99.90
2022-08-08T01:24:06.238Z,99.90
2022-08-08T01:27:33.213Z,99.90
2022-08-08T01:30:53.387Z,99.90
2022-08-08T01:33:54.343Z,99.90
2022-08-08T01:37:03.071Z,99.90
2022-08-08T01:39:49.571Z,99.90
2022-08-08T01:42:36.647Z,99.90
2022-08-08T01:45:22.692Z,99.90
2022-08-08T01:48:16.517Z,99.90
2022-08-08T01:51:31.345Z,99.90
2022-08-08T01:55:16.859Z,99.90
2022-08-08T01:57:10.721Z,99.90
2022-08-08T02:00:08.207Z,99.90
2022-08-08T02:03:07.187Z,99.90
2022-08-08T02:05:56.567Z,99.90
2022-08-08T02:08:39.164Z,99.90
2022-08-08T02:12:00.062Z,99.90
2022-08-08T02:14:25.714Z,99.90
2022-08-08T02:17:03.279Z,99.90
2022-08-08T02:20:09.366Z,99.90
2022-08-08T02:22:52.884Z,99.90
2022-08-08T02:25:33.141Z,99.90
2022-08-08T02:28:34.777Z,99.90
2022-08-08T02:31:43.153Z,99.90
2022-08-08T02:34:08.657Z,99.90
2022-08-08T02:36:45.406Z,99.90
2022-08-08T02:39:41.929Z,99.90
2022-08-08T02:43:23.332Z,99.90
2022-08-08T02:46:12.335Z,99.90
2022-08-08T02:49:27.355Z,99.90
2022-08-08T02:52:34.947Z,99.90
2022-08-08T02:55:57.910Z,99.90
2022-08-08T02:59:05.804Z,99.90
2022-08-08T03:02:36.933Z,99.90
2022-08-08T03:05:27.607Z,99.90
2022-08-08T03:09:00.928Z,99.90
2022-08-08T03:12:06.088Z,99.90
2022-08-08T03:16:00.296Z,99.90
2022-08-08T03:18:07.039Z,99.90
2022-08-08T03:20:46.791Z,99.90
2022-08-08T03:23:20.889Z,99.90
2022-08-08T03:25:50.917Z,99.90
2022-08-08T03:28:21.911Z,99.90
2022-08-08T03:31:13.687Z,99.90
2022-08-08T03:33:55.253Z,99.90
2022-08-08T03:36:30.318Z,99.90
2022-08-08T03:39:14.987Z,99.90
2022-08-08T03:42:26.541Z,99.90
2022-08-08T03:44:34.687Z,99.90
2022-08-08T03:47:14.037Z,99.90
2022-08-08T03:50:00.233Z,99.90
2022-08-08T03:52:32.051Z,99.90
2022-08-08T03:55:10.665Z,99.90
2022-08-08T03:58:31.083Z,99.90
2022-08-08T04:00:53.919Z,99.90
2022-08-08T04:03:59.302Z,99.90
2022-08-08T04:06:13.771Z,99.90
2022-08-08T04:08:42.412Z,99.90
2022-08-08T04:11:17.606Z,99.90
2022-08-08T04:14:03.287Z,99.90
2022-08-08T04:16:40.367Z,99.90
2022-08-08T04:19:25.021Z,99.90
2022-08-08T04:21:54.333Z,99.90
2022-08-08T04:24:29.395Z,99.90
2022-08-08T04:27:00.586Z,99.90
2022-08-08T04:29:33.041Z,99.90
2022-08-08T04:32:01.598Z,99.90
2022-08-08T04:34:32.342Z,99.90
2022-08-08T04:37:12.199Z,99.90
2022-08-08T04:40:03.196Z,99.90
2022-08-08T04:42:31.677Z,99.90
2022-08-08T04:45:00.819Z,99.90
2022-08-08T04:47:28.840Z,99.90
2022-08-08T04:50:00.752Z,99.90
2022-08-08T04:52:34.200Z,99.90
2022-08-08T04:55:04.282Z,99.90
2022-08-08T04:57:34.873Z,99.90
2022-08-08T05:00:02.954Z,99.90
2022-08-08T05:02:31.670Z,99.90
2022-08-08T05:05:00.054Z,99.90
2022-08-08T05:07:37.944Z,99.90
2022-08-08T05:10:12.337Z,99.90
2022-08-08T05:13:00.028Z,99.90
2022-08-08T05:15:31.492Z,99.90
2022-08-08T05:18:17.617Z,99.90
2022-08-08T05:20:50.251Z,99.90
2022-08-08T05:23:20.628Z,99.90
2022-08-08T05:25:49.810Z,99.90
2022-08-08T05:28:48.273Z,99.90
2022-08-08T05:31:19.445Z,99.90
2022-08-08T05:33:55.123Z,99.90
2022-08-08T05:36:28.007Z,99.90
2022-08-08T05:38:58.812Z,99.90
2022-08-08T05:41:28.055Z,99.90
2022-08-08T05:44:14.473Z,99.90
2022-08-08T05:46:42.775Z,99.90
2022-08-08T05:49:17.433Z,99.90
2022-08-08T05:51:49.584Z,99.90
2022-08-08T05:54:42.834Z,99.90
2022-08-08T05:57:12.114Z,99.90
2022-08-08T05:59:53.610Z,99.90
2022-08-08T06:02:47.952Z,99.90
2022-08-08T06:05:33.687Z,99.90
2022-08-08T06:08:09.384Z,99.90
2022-08-08T06:10:41.162Z,99.90
2022-08-08T06:13:09.874Z,99.90
2022-08-08T06:15:50.806Z,99.90
2022-08-08T06:18:23.681Z,99.90
2022-08-08T06:20:56.540Z,99.90
2022-08-08T06:23:52.661Z,99.90
2022-08-08T06:26:38.960Z,99.90
2022-08-08T06:29:18.598Z,99.90
2022-08-08T06:32:10.004Z,99.90
2022-08-08T06:34:56.366Z,99.90
2022-08-08T06:37:40.261Z,99.90
2022-08-08T06:40:14.238Z,99.90
2022-08-08T06:42:53.098Z,99.90
2022-08-08T06:45:22.939Z,99.90
2022-08-08T06:48:00.814Z,99.90
2022-08-08T06:50:33.412Z,99.90
2022-08-08T06:53:09.826Z,99.90
2022-08-08T06:55:43.170Z,99.90
2022-08-08T06:58:11.157Z,99.90
2022-08-08T07:00:41.175Z,99.90
2022-08-08T07:03:51.538Z,99.90
2022-08-08T07:06:05.531Z,99.90
2022-08-08T07:08:38.467Z,99.90
2022-08-08T07:11:08.868Z,99.90
2022-08-08T07:14:01.543Z,99.90
2022-08-08T07:16:53.853Z,99.90
2022-08-08T07:19:31.564Z,99.90
2022-08-08T07:22:05.325Z,99.90
2022-08-08T07:24:36.520Z,99.90
2022-08-08T07:27:16.798Z,99.90
2022-08-08T07:29:59.846Z,99.90
2022-08-08T07:32:29.108Z,99.90
2022-08-08T07:35:02.742Z,99.90
2022-08-08T07:37:49.548Z,99.90
2022-08-08T07:40:28.892Z,99.90
2022-08-08T07:42:57.539Z,99.90
2022-08-08T07:45:34.727Z,99.90
2022-08-08T07:48:15.023Z,99.90
2022-08-08T07:50:45.319Z,99.90
2022-08-08T07:53:52.825Z,99.90
2022-08-08T07:56:11.590Z,99.90
2022-08-08T07:58:43.593Z,99.90
2022-08-08T08:01:13.960Z,99.90
2022-08-08T08:03:47.547Z,99.90
2022-08-08T08:06:18.630Z,99.90
2022-08-08T08:08:52.501Z,99.90
2022-08-08T08:11:23.840Z,99.90
2022-08-08T08:14:09.952Z,99.90
2022-08-08T08:16:41.392Z,94.60
2022-08-08T08:19:10.738Z,94.00
2022-08-08T08:21:52.931Z,92.00
2022-08-08T08:24:30.737Z,88.10
2022-08-08T08:27:03.664Z,90.30
2022-08-08T08:29:31.649Z,87.10
2022-08-08T08:32:05.448Z,86.20
2022-08-08T08:34:34.043Z,78.20
2022-08-08T08:37:07.756Z,67.30
2022-08-08T08:39:59.427Z,56.70
2022-08-08T08:42:32.091Z,46.40
2022-08-08T08:45:21.220Z,38.90
2022-08-08T08:47:52.854Z,35.40
2022-08-08T08:50:33.770Z,34.80
2022-08-08T08:53:55.068Z,32.30
2022-08-08T08:56:01.439Z,31.20
2022-08-08T08:58:33.395Z,31.20
2022-08-08T09:01:09.236Z,29.80
2022-08-08T09:03:45.920Z,30.40
2022-08-08T09:06:28.752Z,29.90
2022-08-08T09:09:25.898Z,30.00
2022-08-08T09:12:02.023Z,29.60
2022-08-08T09:14:34.484Z,29.60
2022-08-08T09:17:11.653Z,29.40
2022-08-08T09:21:58.263Z,28.50
2022-08-08T09:22:31.323Z,29.40
2022-08-08T09:25:01.222Z,29.00
2022-08-08T09:27:55.769Z,27.90
2022-08-08T09:30:20.034Z,28.70
2022-08-08T09:33:54.124Z,27.90
2022-08-08T09:35:50.034Z,27.40
2022-08-08T09:38:53.802Z,28.30
2022-08-08T09:42:14.077Z,28.40
2022-08-08T09:44:34.742Z,28.00
2022-08-08T09:48:02.355Z,28.20
2022-08-08T09:50:01.400Z,28.30
2022-08-08T09:52:57.555Z,28.00
2022-08-08T09:55:51.466Z,28.20
2022-08-08T09:58:25.833Z,29.40
2022-08-08T10:01:03.112Z,27.70
2022-08-08T10:03:55.994Z,27.30
2022-08-08T10:06:29.558Z,28.50
2022-08-08T10:08:57.830Z,28.30
2022-08-08T10:12:26.222Z,28.20
2022-08-08T10:14:35.344Z,28.00
2022-08-08T10:17:38.775Z,28.00
2022-08-08T10:20:00.068Z,28.70
2022-08-08T10:22:29.934Z,35.50
2022-08-08T10:25:04.743Z,37.90
2022-08-08T10:27:41.895Z,39.10
2022-08-08T10:30:16.591Z,42.00
2022-08-08T10:33:02.412Z,38.40
2022-08-08T10:36:08.190Z,35.10
2022-08-08T10:38:21.239Z,32.10
2022-08-08T10:40:53.949Z,30.00
2022-08-08T10:43:23.073Z,30.30
2022-08-08T10:45:56.108Z,30.30
2022-08-08T10:48:37.346Z,29.90
2022-08-08T10:51:21.176Z,30.70
2022-08-08T10:53:57.917Z,30.90
2022-08-08T10:56:35.012Z,32.00
2022-08-08T10:59:07.955Z,33.60
2022-08-08T11:01:39.120Z,36.10
2022-08-08T11:04:10.898Z,39.90
2022-08-08T11:06:41.497Z,39.00
2022-08-08T11:09:19.757Z,42.20
2022-08-08T11:12:04.907Z,42.40
2022-08-08T11:14:49.642Z,42.90
2022-08-08T11:18:00.090Z,43.60
2022-08-08T11:20:12.922Z,44.30
2022-08-08T11:22:42.022Z,44.60
2022-08-08T11:25:14.450Z,45.10
2022-08-08T11:27:46.961Z,44.50
2022-08-08T11:30:20.170Z,42.90
2022-08-08T11:32:53.734Z,44.00
2022-08-08T11:35:27.939Z,43.70
2022-08-08T11:38:39.323Z,44.60
2022-08-08T11:40:55.017Z,45.90
2022-08-08T11:43:39.221Z,46.80
2022-08-08T11:46:14.405Z,44.80
2022-08-08T11:48:48.766Z,44.90
2022-08-08T11:51:38.165Z,45.70
2022-08-08T11:54:27.247Z,46.20
2022-08-08T11:56:56.364Z,45.40
2022-08-08T12:00:01.178Z,44.00
2022-08-08T12:02:36.992Z,44.30
2022-08-08T12:05:13.421Z,44.60
2022-08-08T12:07:52.309Z,45.10
2022-08-08T12:10:22.076Z,43.60
2022-08-08T12:12:51.793Z,44.30
2022-08-08T12:15:30.732Z,43.90
2022-08-08T12:18:21.733Z,44.30
2022-08-08T12:20:55.190Z,42.40
2022-08-08T12:23:42.890Z,42.50
2022-08-08T12:26:27.279Z,42.70
2022-08-08T12:28:57.082Z,41.50
2022-08-08T12:31:38.694Z,42.20
2022-08-08T12:34:14.455Z,41.30
2022-08-08T12:36:49.220Z,42.30
2022-08-08T12:40:00.286Z,42.40
2022-08-08T12:42:21.271Z,42.50
2022-08-08T12:44:50.406Z,45.20
2022-08-08T12:47:57.830Z,43.70
2022-08-08T12:50:16.388Z,43.50
2022-08-08T12:52:54.790Z,44.80
2022-08-08T12:55:35.506Z,44.60
2022-08-08T12:58:15.640Z,43.70
2022-08-08T13:00:43.874Z,43.20
2022-08-08T13:03:11.859Z,43.00
2022-08-08T13:06:04.118Z,43.80
2022-08-08T13:08:53.122Z,44.60
2022-08-08T13:11:28.758Z,43.60
2022-08-08T13:14:15.463Z,44.50
2022-08-08T13:16:43.975Z,44.30
2022-08-08T13:19:17.919Z,43.60
2022-08-08T13:21:58.130Z,43.00
2022-08-08T13:24:42.310Z,44.60
2022-08-08T13:27:14.757Z,44.70
2022-08-08T13:29:51.651Z,43.30
2022-08-08T13:32:25.253Z,43.20
2022-08-08T13:34:58.982Z,42.30
2022-08-08T13:38:05.029Z,43.30
2022-08-08T13:40:27.535Z,43.50
2022-08-08T13:42:56.147Z,44.70
2022-08-08T13:45:26.276Z,45.90
2022-08-08T13:47:58.437Z,45.10
2022-08-08T13:50:38.515Z,44.30
2022-08-08T13:53:24.602Z,44.30
2022-08-08T13:56:11.840Z,46.30
2022-08-08T13:58:56.341Z,47.70
2022-08-08T14:01:32.710Z,46.60
2022-08-08T14:04:22.099Z,46.50
2022-08-08T14:06:50.804Z,45.60
2022-08-08T14:09:29.836Z,45.50
2022-08-08T14:12:00.082Z,46.50
2022-08-08T14:14:41.763Z,46.90
2022-08-08T14:17:22.414Z,45.70
2022-08-08T14:20:06.397Z,46.80
2022-08-08T14:22:42.974Z,47.30
2022-08-08T14:25:15.273Z,47.70
2022-08-08T14:28:00.025Z,46.90
2022-08-08T14:30:35.281Z,48.50
2022-08-08T14:33:11.145Z,48.90
2022-08-08T14:35:43.273Z,48.90
2022-08-08T14:38:34.800Z,50.30
2022-08-08T14:41:13.438Z,51.00
2022-08-08T14:44:10.067Z,51.00
2022-08-08T14:46:38.078Z,49.50
2022-08-08T14:49:20.729Z,51.00
2022-08-08T14:52:08.315Z,50.10
2022-08-08T14:54:47.310Z,50.00
2022-08-08T14:57:17.013Z,48.60
2022-08-08T14:59:51.069Z,49.70
2022-08-08T15:02:25.719Z,48.10
2022-08-08T15:05:10.839Z,48.70
2022-08-08T15:07:40.719Z,50.10
2022-08-08T15:10:11.664Z,49.10
2022-08-08T15:12:41.575Z,49.40
2022-08-08T15:15:18.948Z,49.40
2022-08-08T15:18:01.673Z,49.30
2022-08-08T15:20:29.674Z,49.30
2022-08-08T15:22:59.246Z,48.60
2022-08-08T15:25:33.544Z,49.20
2022-08-08T15:28:32.630Z,49.70
2022-08-08T15:30:51.261Z,51.50
2022-08-08T15:33:35.147Z,52.00
2022-08-08T15:36:06.726Z,52.40
2022-08-08T15:38:34.572Z,53.50
2022-08-08T15:41:02.393Z,53.20
2022-08-08T15:43:36.445Z,51.80
2022-08-08T15:46:07.282Z,52.50
2022-08-08T15:48:38.007Z,51.90
2022-08-08T15:51:07.093Z,52.20
2022-08-08T15:53:48.912Z,51.90
2022-08-08T15:56:19.819Z,55.00
2022-08-08T15:58:48.763Z,57.40
2022-08-08T16:01:18.863Z,57.00
2022-08-08T16:03:51.623Z,58.60
2022-08-08T16:06:28.733Z,58.10
2022-08-08T16:13:00.026Z,58.40
2022-08-08T16:13:10.887Z,57.20
2022-08-08T16:14:36.352Z,56.90
2022-08-08T16:17:06.257Z,57.70
2022-08-08T16:19:59.953Z,57.40
2022-08-08T16:22:30.423Z,57.30
2022-08-08T16:24:58.822Z,56.60
2022-08-08T16:27:33.923Z,56.10
2022-08-08T16:30:13.687Z,56.30
2022-08-08T16:32:43.895Z,52.90
2022-08-08T16:35:18.690Z,51.40
2022-08-08T16:37:50.791Z,51.40
2022-08-08T16:40:19.835Z,55.40
2022-08-08T16:42:51.785Z,56.30
2022-08-08T16:46:36.794Z,53.80
2022-08-08T16:48:13.489Z,56.80
2022-08-08T16:50:41.821Z,57.10
2022-08-08T16:55:22.671Z,56.90
2022-08-08T16:56:00.428Z,55.20
2022-08-08T16:58:32.546Z,58.00
2022-08-08T17:01:05.598Z,56.10
2022-08-08T17:04:00.400Z,58.40
2022-08-08T17:06:36.086Z,56.80
2022-08-08T17:09:06.550Z,54.90
2022-08-08T17:11:38.873Z,55.30
2022-08-08T17:14:18.756Z,56.50
2022-08-08T17:16:57.362Z,58.40
2022-08-08T17:19:29.677Z,59.30
2022-08-08T17:21:57.898Z,57.80
2022-08-08T17:24:30.853Z,55.30
2022-08-08T17:26:59.272Z,56.80
2022-08-08T17:29:27.359Z,58.10
2022-08-08T17:31:57.502Z,56.80
2022-08-08T17:34:36.182Z,56.20
2022-08-08T17:37:15.172Z,55.90
2022-08-08T17:40:02.865Z,57.80
2022-08-08T17:42:31.096Z,59.20
2022-08-08T17:44:58.991Z,57.90
2022-08-08T17:47:27.751Z,57.60
2022-08-08T17:50:01.279Z,57.80
2022-08-08T17:52:33.427Z,57.10
2022-08-08T17:55:05.650Z,58.20
2022-08-08T17:57:51.508Z,57.90
2022-08-08T18:00:25.965Z,58.40
2022-08-08T18:03:08.316Z,60.00
2022-08-08T18:05:47.911Z,59.50
2022-08-08T18:08:25.257Z,59.90
2022-08-08T18:11:11.554Z,60.40
2022-08-08T18:13:41.458Z,61.80
2022-08-08T18:16:11.569Z,62.20
2022-08-08T18:18:45.493Z,62.90
2022-08-08T18:21:25.060Z,64.10
2022-08-08T18:24:04.929Z,63.80
2022-08-08T18:26:33.468Z,65.50
2022-08-08T18:29:01.635Z,66.00
2022-08-08T18:31:29.643Z,66.90
2022-08-08T18:34:12.129Z,68.10
2022-08-08T18:36:46.261Z,69.40
2022-08-08T18:39:16.398Z,68.10
2022-08-08T18:41:59.828Z,67.30
2022-08-08T18:44:35.821Z,65.00
2022-08-08T18:47:04.759Z,66.10
2022-08-08T18:49:40.847Z,65.70
2022-08-08T18:52:22.723Z,67.70
2022-08-08T18:55:01.094Z,68.20
2022-08-08T18:57:40.996Z,68.00
2022-08-08T19:00:15.798Z,66.90
2022-08-08T19:02:54.699Z,66.20
2022-08-08T19:05:24.465Z,66.90
2022-08-08T19:08:00.274Z,67.20
2022-08-08T19:10:29.569Z,68.40
2022-08-08T19:12:58.062Z,67.70
2022-08-08T19:15:34.156Z,68.30
2022-08-08T19:18:32.001Z,68.60
2022-08-08T19:20:51.429Z,68.00
2022-08-08T19:23:21.673Z,68.50
2022-08-08T19:26:02.393Z,68.60
2022-08-08T19:28:41.295Z,69.50
2022-08-08T19:31:09.996Z,69.60
2022-08-08T19:34:04.283Z,71.20
2022-08-08T19:36:28.822Z,72.60
2022-08-08T19:38:56.973Z,74.00
2022-08-08T19:41:29.792Z,77.40
2022-08-08T19:44:03.356Z,78.00
2022-08-08T19:46:33.743Z,80.50
2022-08-08T19:49:03.208Z,81.20
2022-08-08T19:51:34.507Z,83.10
2022-08-08T19:54:07.334Z,88.00
2022-08-08T19:56:40.215Z,90.70
2022-08-08T19:59:09.608Z,92.20
2022-08-08T20:02:02.142Z,94.20
2022-08-08T20:04:26.322Z,95.60
2022-08-08T20:06:54.191Z,99.10
2022-08-08T20:09:24.741Z,99.90
2022-08-08T20:11:54.025Z,99.90
2022-08-08T20:14:34.385Z,99.90
2022-08-08T20:17:04.391Z,99.90
2022-08-08T20:19:33.653Z,99.90
2022-08-08T20:22:20.838Z,99.90
2022-08-08T20:24:54.503Z,99.90
2022-08-08T20:27:24.555Z,99.90
2022-08-08T20:30:00.363Z,99.90
2022-08-08T20:32:29.547Z,99.90
2022-08-08T20:35:01.196Z,99.90
2022-08-08T20:37:46.970Z,99.90
2022-08-08T20:40:18.206Z,99.90
2022-08-08T20:43:13.260Z,99.90
2022-08-08T20:45:55.201Z,99.90
2022-08-08T20:48:28.314Z,99.90
2022-08-08T20:50:56.209Z,99.90
2022-08-08T20:53:59.262Z,99.90
2022-08-08T20:56:15.168Z,99.90
2022-08-08T20:58:47.570Z,99.90
2022-08-08T21:01:20.346Z,99.90
2022-08-08T21:03:55.599Z,99.90
2022-08-08T21:06:52.654Z,99.90
2022-08-08T21:09:16.095Z,99.90
2022-08-08T21:11:51.248Z,99.90
2022-08-08T21:14:33.569Z,99.90
2022-08-08T21:17:03.134Z,99.90
2022-08-08T21:19:45.711Z,99.90
2022-08-08T21:22:14.512Z,99.90
2022-08-08T21:24:52.537Z,99.90
2022-08-08T21:27:38.796Z,99.90
2022-08-08T21:30:16.399Z,99.90
2022-08-08T21:32:51.875Z,99.90
2022-08-08T21:36:13.580Z,99.90
2022-08-08T21:38:16.383Z,99.90
2022-08-08T21:40:56.002Z,99.90
2022-08-08T21:43:25.502Z,99.90
2022-08-08T21:48:08.619Z,99.90
2022-08-08T21:48:49.331Z,99.90
2022-08-08T21:51:20.356Z,99.90
2022-08-08T21:54:34.359Z,99.90
2022-08-08T21:56:59.402Z,99.90
2022-08-08T21:59:44.097Z,99.90
2022-08-08T22:02:19.592Z,99.90
2022-08-08T22:04:50.939Z,99.90
2022-08-08T22:07:19.452Z,99.90
2022-08-08T22:09:47.409Z,99.90
2022-08-08T22:12:17.177Z,99.90
2022-08-08T22:14:47.347Z,99.90
2022-08-08T22:17:19.385Z,99.90
2022-08-08T22:20:11.962Z,99.90
2022-08-08T22:22:38.116Z,99.90
2022-08-08T22:25:17.770Z,99.90
2022-08-08T22:28:02.693Z,99.90
2022-08-08T22:30:33.549Z,99.90
2022-08-08T22:33:03.078Z,99.90
2022-08-08T22:36:05.452Z,99.90
2022-08-08T22:38:48.073Z,99.90
2022-08-08T22:41:21.441Z,99.90
2022-08-08T22:44:02.555Z,99.90
2022-08-08T22:46:34.279Z,99.90
2022-08-08T22:49:09.026Z,99.90
2022-08-08T22:51:42.683Z,99.90
2022-08-08T22:54:32.305Z,99.90
2022-08-08T22:57:11.245Z,99.90
2022-08-08T22:59:48.441Z,99.90
2022-08-08T23:02:28.732Z,99.90
2022-08-08T23:05:01.958Z,99.90
2022-08-08T23:07:51.673Z,99.90
2022-08-08T23:10:22.201Z,99.90
2022-08-08T23:12:53.379Z,99.90
2022-08-08T23:16:40.597Z,99.90
2022-08-08T23:18:11.810Z,99.90
2022-08-08T23:20:43.547Z,99.90
2022-08-08T23:23:11.665Z,99.90
2022-08-08T23:25:48.013Z,99.90
2022-08-08T23:28:17.727Z,99.90
2022-08-08T23:30:46.049Z,99.90
2022-08-08T23:33:21.310Z,99.90
2022-08-08T23:36:07.717Z,99.90
2022-08-08T23:38:36.717Z,99.90
2022-08-08T23:41:23.123Z,99.90
2022-08-08T23:43:54.378Z,99.90
2022-08-08T23:49:03.597Z,99.90
2022-08-08T23:49:14.930Z,99.90
2022-08-08T23:52:05.840Z,99.90
2022-08-08T23:54:41.857Z,99.90
2022-08-08T23:57:26.738Z,99.90
